Time;durP1;ratioP1;P1;durP2;ratioP2;P2;SDS_P1;SDS_P2;PMS_P1;PMS_P2;Temp;Humidity;BMP_temperature;BMP_pressure;BME280_temperature;BME280_humidity;BME280_pressure;Samples;Min_cycle;Max_cycle;Signal;HPM_P1;HPM_P2
2022/01/21 00:00:24;;;;;;;1.63;0.80;;;-0.90;99.90;;;;;;5012571;28;20525;-69
2022/01/21 00:02:49;;;;;;;0.90;0.80;;;-0.90;99.90;;;;;;5012299;28;20180;-70
2022/01/21 00:05:15;;;;;;;10.03;1.10;;;-0.90;99.90;;;;;;5012469;28;20411;-69
2022/01/21 00:07:41;;;;;;;0.70;0.70;;;-0.90;99.90;;;;;;5012343;28;20251;-69
2022/01/21 00:10:08;;;;;;;1.80;1.40;;;-0.80;99.90;;;;;;4994808;28;20199;-69
2022/01/21 00:12:35;;;;;;;0.80;0.80;;;-0.80;99.90;;;;;;5012195;28;20401;-68
2022/01/21 00:15:00;;;;;;;0.90;0.90;;;-0.90;99.90;;;;;;4994471;28;20415;-68
2022/01/21 00:17:26;;;;;;;0.70;0.70;;;-0.90;99.90;;;;;;5012202;28;20411;-68
2022/01/21 00:30:04;;;;;;;3.37;1.13;;;-0.80;99.90;;;;;;5012394;28;20173;-69
2022/01/21 00:30:49;;;;;;;1.00;1.00;;;-0.90;99.90;;;;;;5012076;28;20414;-69
2022/01/21 00:33:14;;;;;;;2.80;2.70;;;-0.90;99.90;;;;;;5011819;28;20443;-69
2022/01/21 00:35:40;;;;;;;12.63;1.30;;;-0.90;99.90;;;;;;5012040;28;20180;-70
2022/01/21 00:38:05;;;;;;;1.10;0.97;;;-1.00;99.90;;;;;;5012207;28;20635;-69
2022/01/21 00:40:33;;;;;;;0.80;0.80;;;-0.90;99.90;;;;;;5011963;28;20175;-69
2022/01/21 00:43:28;;;;;;;0.70;0.70;;;-0.90;99.90;;;;;;5011624;28;20204;-69
2022/01/21 00:45:53;;;;;;;2.97;1.30;;;-1.00;99.90;;;;;;5011803;28;20451;-68
2022/01/21 00:48:19;;;;;;;1.00;0.90;;;-1.00;99.90;;;;;;5012005;28;21008;-69
2022/01/21 00:50:44;;;;;;;0.80;0.80;;;-1.00;99.90;;;;;;5011684;28;20180;-68
2022/01/21 00:53:10;;;;;;;0.70;0.70;;;-1.00;99.90;;;;;;5011668;28;20189;-69
2022/01/21 00:55:35;;;;;;;0.70;0.70;;;-1.00;99.90;;;;;;5011612;28;20560;-68
2022/01/21 00:58:01;;;;;;;1.20;1.10;;;-1.00;99.90;;;;;;4993972;28;20180;-68
2022/01/21 01:00:26;;;;;;;0.93;0.90;;;-0.90;99.90;;;;;;5011564;28;20176;-69
2022/01/21 01:02:52;;;;;;;0.80;0.80;;;-1.00;99.90;;;;;;5011399;28;20635;-68
2022/01/21 01:05:18;;;;;;;0.90;0.90;;;-1.00;99.90;;;;;;4993859;28;20219;-69
2022/01/21 01:07:43;;;;;;;0.93;0.93;;;-1.00;99.90;;;;;;5011787;28;20255;-69
2022/01/21 01:10:16;;;;;;;0.70;0.70;;;-1.00;99.90;;;;;;5011939;28;20276;-69
2022/01/21 01:19:51;;;;;;;6.00;2.00;;;-1.00;99.90;;;;;;5013948;28;20152;-69
2022/01/21 01:21:10;;;;;;;7.70;1.37;;;-1.10;99.90;;;;;;5011846;28;20410;-69
2022/01/21 01:23:51;;;;;;;4.00;0.90;;;-1.10;99.90;;;;;;5006643;28;20466;-70
2022/01/21 01:29:01;;;;;;;0.70;0.70;;;-1.10;99.90;;;;;;5011655;28;20546;-69
2022/01/21 01:31:26;;;;;;;3.43;1.23;;;-1.00;99.90;;;;;;5011546;28;20526;-69
2022/01/21 01:33:53;;;;;;;0.93;0.93;;;-1.00;99.90;;;;;;5011353;28;20699;-69
2022/01/21 01:36:20;;;;;;;0.70;0.70;;;-1.10;99.90;;;;;;5011468;28;20180;-69
2022/01/21 01:39:05;;;;;;;0.83;0.83;;;-1.00;99.90;;;;;;5011329;28;20414;-70
2022/01/21 01:41:37;;;;;;;0.80;0.80;;;-1.10;99.90;;;;;;5011410;28;20421;-69
2022/01/21 01:49:37;;;;;;;0.73;0.73;;;-1.00;99.90;;;;;;5011371;28;20457;-68
2022/01/21 01:52:05;;;;;;;0.90;0.80;;;-1.00;99.90;;;;;;5011394;28;20791;-69
2022/01/21 01:54:34;;;;;;;1.10;1.10;;;-1.00;99.90;;;;;;5011345;28;20830;-69
2022/01/21 01:56:59;;;;;;;0.90;0.90;;;-1.00;99.90;;;;;;5013798;28;20461;-69
2022/01/21 01:59:26;;;;;;;0.80;0.80;;;-1.00;99.90;;;;;;5015008;28;20929;-69
2022/01/21 02:02:01;;;;;;;1.20;1.10;;;-1.10;99.90;;;;;;4997073;28;20202;-69
2022/01/21 02:04:27;;;;;;;0.90;0.90;;;-1.20;99.90;;;;;;5013462;28;20990;-69
2022/01/21 02:06:53;;;;;;;0.77;0.77;;;-1.20;99.90;;;;;;5014503;28;20466;-69
2022/01/21 02:11:46;;;;;;;0.70;0.70;;;-1.20;99.90;;;;;;5052878;23;20227;-73
2022/01/21 02:14:16;;;;;;;3.80;0.83;;;-1.30;99.90;;;;;;5016982;28;20414;-74
2022/01/21 02:17:09;;;;;;;0.70;0.70;;;-1.20;99.90;;;;;;5034639;28;20407;-74
2022/01/21 02:22:25;;;;;;;0.73;0.73;;;-1.30;99.90;;;;;;5034621;28;20409;-73
2022/01/21 02:24:58;;;;;;;0.60;0.60;;;-1.30;99.90;;;;;;5034595;28;20411;-74
2022/01/21 02:27:23;;;;;;;0.70;0.70;;;-1.30;99.90;;;;;;5034476;28;20469;-74
2022/01/21 02:29:53;;;;;;;1.30;1.20;;;-1.30;99.90;;;;;;5034791;28;20429;-74
2022/01/21 02:32:19;;;;;;;1.20;1.10;;;-1.40;99.90;;;;;;5016571;28;20492;-74
2022/01/21 02:34:47;;;;;;;0.70;0.70;;;-1.40;99.90;;;;;;5034240;28;20465;-75
2022/01/21 02:37:15;;;;;;;1.00;0.90;;;-1.40;99.90;;;;;;5034469;28;20407;-74
2022/01/21 02:39:41;;;;;;;0.80;0.80;;;-1.40;99.90;;;;;;5034248;28;20799;-74
2022/01/21 02:42:07;;;;;;;1.33;1.33;;;-1.40;99.90;;;;;;5034586;28;20410;-75
2022/01/21 02:44:33;;;;;;;1.43;1.17;;;-1.30;99.90;;;;;;5034183;28;20854;-73
2022/01/21 02:47:01;;;;;;;0.70;0.70;;;-1.40;99.90;;;;;;5034185;28;20489;-74
2022/01/21 02:49:27;;;;;;;1.30;1.20;;;-1.30;99.90;;;;;;5033968;28;20221;-74
2022/01/21 02:51:55;;;;;;;0.70;0.70;;;-1.30;99.90;;;;;;5034198;28;20402;-73
2022/01/21 02:54:21;;;;;;;0.90;0.90;;;-1.40;99.90;;;;;;5016315;28;20422;-74
2022/01/21 02:56:47;;;;;;;8.80;1.20;;;-1.40;99.90;;;;;;5033870;28;20414;-74
2022/01/21 02:59:12;;;;;;;0.70;0.70;;;-1.50;99.90;;;;;;5033929;28;20406;-74
2022/01/21 03:01:41;;;;;;;0.60;0.60;;;-1.60;99.90;;;;;;5033901;28;20549;-73
2022/01/21 03:04:09;;;;;;;1.37;0.90;;;-1.50;99.90;;;;;;5034138;28;20634;-74
2022/01/21 03:06:38;;;;;;;0.70;0.70;;;-1.50;99.90;;;;;;5033789;28;20450;-74
2022/01/21 03:09:06;;;;;;;1.17;0.80;;;-1.50;99.90;;;;;;5032567;28;20406;-74
2022/01/21 03:11:32;;;;;;;0.80;0.80;;;-1.50;99.90;;;;;;5033631;28;20454;-74
2022/01/21 03:13:57;;;;;;;0.80;0.80;;;-1.60;99.90;;;;;;5033698;28;20468;-74
2022/01/21 03:16:24;;;;;;;4.30;0.80;;;-1.50;99.90;;;;;;5033504;28;20501;-74
2022/01/21 03:18:50;;;;;;;0.70;0.70;;;-1.50;99.90;;;;;;5033543;28;20175;-74
2022/01/21 03:21:16;;;;;;;0.70;0.70;;;-1.50;99.90;;;;;;5033514;28;20434;-73
2022/01/21 03:23:47;;;;;;;0.80;0.80;;;-1.60;99.90;;;;;;5033789;28;20777;-75
2022/01/21 03:26:15;;;;;;;2.40;1.33;;;-1.60;99.90;;;;;;5033464;28;20520;-73
2022/01/21 03:28:41;;;;;;;0.70;0.70;;;-1.70;99.90;;;;;;5033626;28;20406;-75
2022/01/21 03:31:07;;;;;;;0.90;0.90;;;-1.60;99.90;;;;;;5033467;28;20939;-74
2022/01/21 03:33:32;;;;;;;0.80;0.80;;;-1.70;99.90;;;;;;5033558;28;20174;-74
2022/01/21 03:35:58;;;;;;;1.63;1.00;;;-1.60;99.90;;;;;;5033254;28;20656;-75
2022/01/21 03:38:26;;;;;;;0.80;0.80;;;-1.50;99.90;;;;;;5033269;28;20205;-75
2022/01/21 03:40:52;;;;;;;3.33;1.20;;;-1.60;99.90;;;;;;5032945;28;20194;-74
2022/01/21 03:43:19;;;;;;;0.80;0.80;;;-1.60;99.90;;;;;;5015391;28;20430;-75
2022/01/21 03:45:44;;;;;;;0.83;0.70;;;-1.60;99.90;;;;;;5032812;28;20871;-74
2022/01/21 03:48:10;;;;;;;1.00;0.83;;;-1.80;99.90;;;;;;5033080;28;20415;-74
2022/01/21 03:50:35;;;;;;;0.90;0.80;;;-1.70;99.90;;;;;;5032913;28;20562;-75
2022/01/21 03:53:03;;;;;;;2.00;1.20;;;-1.80;99.90;;;;;;5032931;28;20175;-74
2022/01/21 03:55:30;;;;;;;0.80;0.80;;;-1.80;99.90;;;;;;5032738;28;20515;-73
2022/01/21 03:57:56;;;;;;;2.20;2.10;;;-1.80;99.90;;;;;;5032838;28;20413;-74
2022/01/21 04:00:24;;;;;;;0.70;0.70;;;-1.80;99.90;;;;;;5032487;28;20431;-75
2022/01/21 04:02:50;;;;;;;0.70;0.70;;;-1.80;99.90;;;;;;5032758;28;20672;-73
2022/01/21 04:05:16;;;;;;;0.80;0.80;;;-1.90;99.90;;;;;;5032712;28;20464;-74
2022/01/21 04:07:41;;;;;;;1.00;1.00;;;-1.90;99.90;;;;;;5032670;28;20561;-74
2022/01/21 04:10:07;;;;;;;1.17;1.17;;;-1.80;99.90;;;;;;5028031;28;20589;-73
2022/01/21 04:12:33;;;;;;;1.10;1.10;;;-1.80;99.90;;;;;;5032541;28;20230;-74
2022/01/21 04:14:59;;;;;;;0.80;0.80;;;-1.90;99.90;;;;;;5032659;28;20842;-76
2022/01/21 04:17:26;;;;;;;0.73;0.73;;;-1.90;99.90;;;;;;5032750;28;20576;-75
2022/01/21 04:19:51;;;;;;;0.90;0.90;;;-1.90;99.90;;;;;;5032203;28;20433;-73
2022/01/21 04:22:17;;;;;;;1.27;1.17;;;-1.90;99.90;;;;;;5032485;28;20418;-75
2022/01/21 04:24:45;;;;;;;0.80;0.80;;;-1.90;99.90;;;;;;5032604;28;20176;-74
2022/01/21 04:27:12;;;;;;;0.80;0.80;;;-2.00;99.90;;;;;;5032188;28;20227;-74
2022/01/21 04:29:37;;;;;;;0.80;0.80;;;-2.00;99.90;;;;;;5032726;28;20472;-74
2022/01/21 04:32:03;;;;;;;0.80;0.80;;;-2.00;99.90;;;;;;5030057;28;20422;-74
2022/01/21 04:34:29;;;;;;;1.07;1.07;;;-2.00;99.90;;;;;;5032039;28;20168;-75
2022/01/21 04:36:54;;;;;;;1.20;1.20;;;-2.00;99.90;;;;;;5031911;28;20444;-74
2022/01/21 04:39:27;;;;;;;1.30;1.20;;;-2.00;99.90;;;;;;5032088;28;20191;-74
2022/01/21 04:47:29;;;;;;;1.03;1.03;;;-2.10;99.90;;;;;;5023252;28;20458;-73
2022/01/21 04:49:54;;;;;;;1.00;1.00;;;-2.00;99.90;;;;;;5032091;28;20492;-75
2022/01/21 04:52:21;;;;;;;1.10;1.00;;;-2.00;99.90;;;;;;5031911;28;20509;-73
2022/01/21 04:54:47;;;;;;;1.23;1.00;;;-2.10;99.90;;;;;;5031867;28;20172;-73
2022/01/21 04:57:13;;;;;;;0.70;0.70;;;-2.20;99.90;;;;;;5031788;28;20939;-73
2022/01/21 04:59:40;;;;;;;0.80;0.80;;;-2.20;99.90;;;;;;5031707;28;20414;-74
2022/01/21 05:02:06;;;;;;;0.80;0.80;;;-2.10;99.90;;;;;;5031726;28;20175;-74
2022/01/21 05:04:31;;;;;;;0.80;0.80;;;-2.20;99.90;;;;;;5010827;28;20407;-75
2022/01/21 05:06:57;;;;;;;1.10;1.00;;;-2.10;99.90;;;;;;5031776;28;20446;-73
2022/01/21 05:09:29;;;;;;;0.90;0.90;;;-2.20;99.90;;;;;;5031639;28;20199;-73
2022/01/21 05:11:56;;;;;;;2.10;1.00;;;-2.20;99.90;;;;;;5031703;28;20697;-73
2022/01/21 05:14:25;;;;;;;2.97;1.40;;;-2.30;99.90;;;;;;5031639;28;20402;-74
2022/01/21 05:17:00;;;;;;;0.80;0.80;;;-2.20;99.90;;;;;;5031994;28;20490;-74
2022/01/21 05:19:25;;;;;;;2.77;2.60;;;-2.30;99.90;;;;;;5031948;28;20397;-74
2022/01/21 05:21:51;;;;;;;0.80;0.80;;;-2.20;99.90;;;;;;5032005;28;20776;-75
2022/01/21 05:24:20;;;;;;;0.90;0.83;;;-2.30;99.90;;;;;;5031810;28;20172;-73
2022/01/21 05:26:53;;;;;;;0.80;0.80;;;-2.20;99.90;;;;;;5030607;28;20235;-72
2022/01/21 05:29:21;;;;;;;1.30;1.27;;;-2.30;99.90;;;;;;5035100;28;20497;-73
2022/01/21 05:31:47;;;;;;;0.90;0.90;;;-2.20;99.90;;;;;;5037623;28;20767;-73
2022/01/21 05:34:12;;;;;;;0.80;0.80;;;-2.20;99.90;;;;;;5017790;28;20399;-73
2022/01/21 05:36:40;;;;;;;0.83;0.83;;;-2.20;99.90;;;;;;5017851;28;20410;-73
2022/01/21 05:39:06;;;;;;;2.20;0.90;;;-2.20;99.90;;;;;;5031654;28;20240;-73
2022/01/21 05:41:32;;;;;;;3.80;1.37;;;-2.20;99.90;;;;;;5010072;28;20456;-73
2022/01/21 05:44:02;;;;;;;0.77;0.77;;;-2.20;99.90;;;;;;5035353;28;20414;-73
2022/01/21 05:46:54;;;;;;;0.77;0.77;;;-2.20;99.90;;;;;;5034994;28;20202;-74
2022/01/21 05:49:20;;;;;;;1.10;1.10;;;-2.20;99.90;;;;;;5035286;28;20410;-72
2022/01/21 05:51:46;;;;;;;1.33;1.23;;;-2.20;99.90;;;;;;5034859;28;21138;-73
2022/01/21 05:54:13;;;;;;;8.00;1.47;;;-2.30;99.90;;;;;;5035213;28;20912;-73
2022/01/21 05:56:38;;;;;;;1.30;1.30;;;-2.30;99.90;;;;;;5035025;28;20812;-73
2022/01/21 05:59:05;;;;;;;9.70;1.10;;;-2.30;99.90;;;;;;5035119;28;20524;-74
2022/01/21 06:01:32;;;;;;;6.60;1.13;;;-2.20;99.90;;;;;;5034890;28;20784;-73
2022/01/21 06:03:58;;;;;;;2.40;2.20;;;-2.30;99.90;;;;;;5035293;28;20424;-77
2022/01/21 06:06:24;;;;;;;0.80;0.80;;;-2.30;99.90;;;;;;5035002;28;20947;-73
2022/01/21 06:08:49;;;;;;;0.70;0.70;;;-2.30;99.90;;;;;;5034499;28;20542;-73
2022/01/21 06:11:15;;;;;;;1.03;1.03;;;-2.20;99.90;;;;;;5030571;28;20211;-73
2022/01/21 06:13:40;;;;;;;7.70;1.10;;;-2.10;99.90;;;;;;5034728;28;20669;-73
2022/01/21 06:16:06;;;;;;;1.30;1.20;;;-2.20;99.90;;;;;;5034642;28;20180;-73
2022/01/21 06:18:31;;;;;;;1.00;1.00;;;-2.20;99.90;;;;;;5034683;28;20180;-73
2022/01/21 06:20:57;;;;;;;0.90;0.90;;;-2.20;99.90;;;;;;5034605;28;20227;-72
2022/01/21 06:23:23;;;;;;;1.77;1.67;;;-2.10;99.90;;;;;;5034575;28;20669;-72
2022/01/21 06:25:48;;;;;;;1.53;1.43;;;-2.20;99.90;;;;;;5034300;28;20199;-73
2022/01/21 06:28:14;;;;;;;1.00;1.00;;;-2.20;99.90;;;;;;5034030;28;20225;-74
2022/01/21 06:30:39;;;;;;;1.20;1.20;;;-2.20;99.90;;;;;;5034367;28;20578;-73
2022/01/21 06:33:05;;;;;;;1.10;1.00;;;-2.20;99.90;;;;;;5034210;28;20175;-74
2022/01/21 06:35:30;;;;;;;1.63;1.53;;;-2.20;99.90;;;;;;5034152;28;20419;-74
2022/01/21 06:37:56;;;;;;;2.03;1.93;;;-2.20;99.90;;;;;;5034194;28;20207;-73
2022/01/21 06:40:22;;;;;;;0.80;0.80;;;-2.20;99.90;;;;;;5033904;28;20224;-72
2022/01/21 06:42:49;;;;;;;0.70;0.70;;;-2.30;99.90;;;;;;5033678;28;20188;-73
2022/01/21 06:45:14;;;;;;;2.50;2.30;;;-2.30;99.90;;;;;;5034165;28;20846;-74
2022/01/21 06:47:40;;;;;;;0.80;0.80;;;-2.30;99.90;;;;;;5033741;28;20492;-75
2022/01/21 06:50:06;;;;;;;0.90;0.90;;;-2.30;99.90;;;;;;5033812;28;20674;-74
2022/01/21 06:52:31;;;;;;;1.00;0.90;;;-2.20;99.90;;;;;;5033971;28;20175;-75
2022/01/21 06:54:58;;;;;;;2.87;1.67;;;-2.20;99.90;;;;;;5033839;28;20429;-75
2022/01/21 06:57:24;;;;;;;0.80;0.80;;;-2.20;99.90;;;;;;5033697;28;20233;-75
2022/01/21 06:59:50;;;;;;;1.00;1.00;;;-2.20;99.90;;;;;;5034301;28;20452;-74
2022/01/21 07:02:18;;;;;;;0.90;0.90;;;-2.20;99.90;;;;;;5039192;28;20414;-75
2022/01/21 07:04:45;;;;;;;2.30;1.33;;;-2.20;99.90;;;;;;5040953;28;20179;-74
2022/01/21 07:07:10;;;;;;;0.73;0.73;;;-2.10;99.90;;;;;;5041609;28;20520;-74
2022/01/21 07:09:36;;;;;;;1.87;1.30;;;-2.20;99.90;;;;;;5039997;28;20425;-74
2022/01/21 07:12:02;;;;;;;1.07;1.00;;;-2.10;99.90;;;;;;5040296;28;20190;-75
2022/01/21 07:14:27;;;;;;;1.57;1.47;;;-2.20;99.90;;;;;;5039990;28;20634;-75
2022/01/21 07:16:53;;;;;;;0.97;0.97;;;-2.10;99.90;;;;;;5039737;28;20229;-75
2022/01/21 07:19:18;;;;;;;2.00;1.90;;;-2.10;99.90;;;;;;5039230;28;20202;-76
2022/01/21 07:21:44;;;;;;;1.40;1.30;;;-2.00;99.90;;;;;;5022201;28;20196;-74
2022/01/21 07:24:09;;;;;;;8.33;0.93;;;-2.10;99.90;;;;;;5036699;28;20638;-75
2022/01/21 07:26:35;;;;;;;0.70;0.70;;;-2.00;99.90;;;;;;5032920;28;20242;-74
2022/01/21 07:29:01;;;;;;;0.93;0.93;;;-2.10;99.90;;;;;;5032912;28;20291;-74
2022/01/21 07:31:26;;;;;;;1.07;1.00;;;-2.10;99.90;;;;;;5033092;28;20200;-75
2022/01/21 07:33:52;;;;;;;1.00;0.90;;;-2.00;99.90;;;;;;5032799;28;20888;-75
2022/01/21 07:36:18;;;;;;;0.80;0.80;;;-2.10;99.90;;;;;;5032966;28;20180;-73
2022/01/21 07:38:43;;;;;;;1.83;1.43;;;-2.00;99.90;;;;;;5032812;28;20434;-74
2022/01/21 07:41:09;;;;;;;0.80;0.80;;;-2.00;99.90;;;;;;5032478;28;20206;-74
2022/01/21 07:43:34;;;;;;;1.77;1.20;;;-2.00;99.90;;;;;;5029823;28;20642;-74
2022/01/21 07:45:59;;;;;;;0.80;0.80;;;-1.90;99.90;;;;;;5034134;28;20195;-74
2022/01/21 07:48:25;;;;;;;3.80;1.00;;;-1.90;99.90;;;;;;5016034;28;20200;-74
2022/01/21 07:50:51;;;;;;;0.80;0.80;;;-1.90;99.90;;;;;;5034118;28;20282;-73
2022/01/21 07:53:16;;;;;;;0.90;0.90;;;-1.90;99.90;;;;;;5032766;28;20190;-74
2022/01/21 07:55:44;;;;;;;10.93;1.50;;;-1.90;99.90;;;;;;5032200;28;20266;-75
2022/01/21 07:58:10;;;;;;;2.50;2.13;;;-1.90;99.90;;;;;;5032618;28;20704;-74
2022/01/21 08:00:36;;;;;;;0.80;0.80;;;-1.80;99.90;;;;;;5028528;28;20497;-75
2022/01/21 08:03:02;;;;;;;0.80;0.80;;;-1.90;99.90;;;;;;5025031;28;20431;-74
2022/01/21 08:05:31;;;;;;;1.50;1.43;;;-1.80;99.90;;;;;;5032182;28;20410;-74
2022/01/21 08:07:57;;;;;;;1.60;1.50;;;-1.80;99.90;;;;;;5024968;28;20517;-74
2022/01/21 08:10:22;;;;;;;2.80;2.70;;;-1.80;99.90;;;;;;5009784;28;20571;-74
2022/01/21 08:12:48;;;;;;;0.70;0.70;;;-1.80;99.90;;;;;;5006528;28;20177;-74
2022/01/21 08:15:13;;;;;;;0.70;0.70;;;-1.80;99.90;;;;;;5032288;28;20223;-75
2022/01/21 08:17:39;;;;;;;0.77;0.77;;;-1.70;99.90;;;;;;5032295;28;20187;-74
2022/01/21 08:20:05;;;;;;;1.33;0.87;;;-1.70;99.90;;;;;;5032223;28;20200;-74
2022/01/21 08:22:30;;;;;;;1.00;1.00;;;-1.70;99.90;;;;;;5031945;28;20175;-76
2022/01/21 08:24:56;;;;;;;0.80;0.80;;;-1.60;99.90;;;;;;5053874;22;20574;-68
2022/01/21 08:27:22;;;;;;;1.00;1.00;;;-1.50;99.90;;;;;;5031401;28;20208;-69
2022/01/21 08:29:48;;;;;;;1.00;1.00;;;-1.30;99.90;;;;;;5031930;28;20183;-69
2022/01/21 08:32:14;;;;;;;2.63;1.93;;;-0.90;99.90;;;;;;5030489;28;20416;-69
2022/01/21 08:34:40;;;;;;;0.70;0.70;;;-0.70;99.90;;;;;;5026797;28;20482;-69
2022/01/21 08:37:06;;;;;;;0.80;0.80;;;-0.70;99.90;;;;;;5024801;28;20438;-69
2022/01/21 08:39:32;;;;;;;0.70;0.70;;;-0.90;99.90;;;;;;5025576;28;20430;-69
2022/01/21 08:41:59;;;;;;;1.73;0.83;;;-0.70;99.90;;;;;;5023968;28;20208;-70
2022/01/21 08:44:24;;;;;;;0.90;0.90;;;-0.90;99.90;;;;;;5031028;28;20500;-69
2022/01/21 08:46:50;;;;;;;1.57;1.10;;;-1.00;99.90;;;;;;5030954;28;20454;-69
2022/01/21 08:49:18;;;;;;;1.10;1.10;;;-1.00;99.90;;;;;;5030578;28;20176;-69
2022/01/21 08:51:53;;;;;;;3.33;1.13;;;-0.70;99.90;;;;;;5030980;28;20662;-69
2022/01/21 08:54:19;;;;;;;1.20;0.97;;;-0.50;99.90;;;;;;5027147;28;20523;-69
2022/01/21 08:56:46;;;;;;;1.10;1.10;;;-0.50;99.90;;;;;;5031071;28;20422;-69
2022/01/21 08:59:12;;;;;;;1.17;1.10;;;-0.50;99.90;;;;;;5030906;28;20418;-70
2022/01/21 09:01:37;;;;;;;0.80;0.80;;;-0.40;99.90;;;;;;5030971;28;20418;-69
2022/01/21 09:04:03;;;;;;;0.70;0.70;;;-0.40;99.90;;;;;;5031071;28;20195;-70
2022/01/21 09:06:29;;;;;;;1.53;1.13;;;-0.30;99.90;;;;;;5026620;28;20198;-69
2022/01/21 09:08:58;;;;;;;0.70;0.70;;;-0.10;99.90;;;;;;5029918;28;20183;-68
2022/01/21 09:11:24;;;;;;;0.80;0.80;;;0.20;99.90;;;;;;5030988;28;20414;-68
2022/01/21 09:13:51;;;;;;;5.23;3.50;;;0.10;99.90;;;;;;5030844;28;20422;-71
2022/01/21 09:16:17;;;;;;;0.60;0.60;;;0.30;99.90;;;;;;5030733;28;20630;-71
2022/01/21 09:18:48;;;;;;;1.00;1.00;;;0.00;99.90;;;;;;5030936;28;20421;-69
2022/01/21 09:21:18;;;;;;;1.77;1.53;;;0.10;99.90;;;;;;5030928;28;20444;-69
2022/01/21 09:23:47;;;;;;;2.40;1.03;;;-0.20;99.90;;;;;;5030419;28;20414;-67
2022/01/21 09:26:13;;;;;;;2.83;1.23;;;-0.30;99.90;;;;;;5030875;28;20446;-68
2022/01/21 09:28:39;;;;;;;0.90;0.90;;;-0.30;99.90;;;;;;5030905;28;20442;-70
2022/01/21 09:31:04;;;;;;;1.43;1.33;;;-0.20;99.90;;;;;;5031187;28;20488;-71
2022/01/21 09:33:30;;;;;;;1.73;1.17;;;-0.10;99.90;;;;;;5030859;28;20174;-70
2022/01/21 09:35:56;;;;;;;1.93;1.83;;;-0.20;99.90;;;;;;5030512;28;20195;-70
2022/01/21 09:38:22;;;;;;;1.87;1.43;;;-0.10;99.90;;;;;;5026608;28;20190;-69
2022/01/21 09:40:49;;;;;;;4.40;1.13;;;-0.10;99.90;;;;;;5030617;28;20262;-69
2022/01/21 09:43:16;;;;;;;1.17;1.07;;;0.00;99.90;;;;;;5030668;28;20421;-69
2022/01/21 09:45:45;;;;;;;7.43;1.77;;;0.00;99.90;;;;;;5030467;28;20430;-70
2022/01/21 09:48:12;;;;;;;1.00;1.00;;;0.00;99.90;;;;;;5030450;28;20418;-69
2022/01/21 09:50:38;;;;;;;0.73;0.73;;;0.30;99.90;;;;;;5030556;28;20418;-69
2022/01/21 09:53:06;;;;;;;2.50;1.67;;;0.30;99.90;;;;;;5030761;28;20482;-68
2022/01/21 09:55:31;;;;;;;1.43;1.33;;;0.20;99.90;;;;;;5024951;28;20445;-69
2022/01/21 09:57:57;;;;;;;0.70;0.70;;;0.30;99.90;;;;;;5022197;28;20919;-69
2022/01/21 10:00:28;;;;;;;2.23;1.30;;;0.20;99.90;;;;;;5030671;28;20712;-69
2022/01/21 10:02:55;;;;;;;10.90;1.33;;;0.30;99.90;;;;;;5030609;28;20221;-69
2022/01/21 10:05:21;;;;;;;0.77;0.77;;;0.40;99.90;;;;;;5030431;28;20783;-69
2022/01/21 10:07:48;;;;;;;0.73;0.73;;;0.40;99.90;;;;;;5012883;28;20460;-69
2022/01/21 10:10:15;;;;;;;0.83;0.83;;;0.40;99.90;;;;;;5030507;28;20199;-70
2022/01/21 10:12:45;;;;;;;2.30;1.03;;;0.40;99.90;;;;;;5030520;28;20419;-69
2022/01/21 10:15:11;;;;;;;1.20;1.10;;;0.40;99.90;;;;;;5030030;28;20434;-69
2022/01/21 10:17:37;;;;;;;7.57;1.63;;;0.50;99.90;;;;;;5030375;28;20428;-69
2022/01/21 10:20:22;;;;;;;5.13;1.57;;;0.50;99.90;;;;;;5031131;28;20588;-69
2022/01/21 10:23:07;;;;;;;0.90;0.90;;;0.50;99.90;;;;;;5033874;28;20476;-69
2022/01/21 10:25:35;;;;;;;1.10;0.90;;;0.50;99.90;;;;;;5033173;28;20564;-69
2022/01/21 10:28:19;;;;;;;2.50;1.30;;;0.60;99.90;;;;;;5034823;28;20461;-69
2022/01/21 10:30:46;;;;;;;0.80;0.73;;;0.70;99.90;;;;;;5034248;28;20472;-70
2022/01/21 10:33:20;;;;;;;2.17;2.07;;;0.60;99.90;;;;;;5034135;28;20853;-69
2022/01/21 10:35:49;;;;;;;7.60;1.73;;;0.70;99.90;;;;;;5033349;28;20453;-71
2022/01/21 10:38:17;;;;;;;1.30;1.20;;;0.70;99.90;;;;;;5033843;28;20433;-69
2022/01/21 10:40:43;;;;;;;0.60;0.60;;;0.80;99.90;;;;;;5033873;28;20982;-69
2022/01/21 10:43:13;;;;;;;0.93;0.73;;;0.80;99.90;;;;;;5033695;28;20426;-69
2022/01/21 10:45:54;;;;;;;0.90;0.90;;;0.80;99.90;;;;;;5033328;28;20458;-69
2022/01/21 10:48:20;;;;;;;1.07;0.97;;;0.90;99.90;;;;;;5033605;28;20418;-70
2022/01/21 10:50:46;;;;;;;0.80;0.80;;;1.00;99.90;;;;;;5033223;28;20445;-69
2022/01/21 10:53:29;;;;;;;1.37;1.27;;;1.10;99.90;;;;;;5033572;28;20254;-69
2022/01/21 10:56:10;;;;;;;1.00;1.00;;;1.10;99.90;;;;;;5033419;28;20223;-70
2022/01/21 10:58:44;;;;;;;0.87;0.87;;;1.20;99.90;;;;;;5014828;28;20440;-69
2022/01/21 11:01:16;;;;;;;0.83;0.80;;;1.20;99.90;;;;;;5033573;28;20445;-69
2022/01/21 11:04:07;;;;;;;3.00;0.70;;;1.20;99.90;;;;;;5033239;28;20418;-68
2022/01/21 11:06:46;;;;;;;1.03;0.90;;;1.30;99.90;;;;;;5032916;28;20980;-69
2022/01/21 11:09:13;;;;;;;1.53;1.10;;;1.30;99.90;;;;;;5033056;28;20422;-68
2022/01/21 11:11:39;;;;;;;1.47;1.20;;;1.40;99.90;;;;;;5033278;28;20425;-70
2022/01/21 11:14:37;;;;;;;0.93;0.93;;;1.40;99.90;;;;;;5032933;28;20852;-69
2022/01/21 11:17:14;;;;;;;0.90;0.90;;;1.40;99.90;;;;;;5009357;28;20203;-69
2022/01/21 11:19:59;;;;;;;1.20;1.20;;;1.40;99.90;;;;;;5032935;28;20413;-69
2022/01/21 11:22:25;;;;;;;1.03;0.93;;;1.50;99.90;;;;;;5032932;28;20410;-69
2022/01/21 11:24:50;;;;;;;2.30;1.00;;;1.40;99.90;;;;;;5032688;28;21022;-69
2022/01/21 11:27:16;;;;;;;2.40;1.93;;;1.40;99.90;;;;;;5032701;28;20209;-69
2022/01/21 11:29:45;;;;;;;1.20;1.10;;;1.40;99.90;;;;;;5013849;28;20654;-69
2022/01/21 11:32:12;;;;;;;1.17;1.00;;;1.60;99.90;;;;;;5032627;28;20425;-69
2022/01/21 11:34:38;;;;;;;0.90;0.90;;;1.50;99.90;;;;;;5032778;28;20496;-68
2022/01/21 11:37:06;;;;;;;1.07;0.97;;;1.60;99.90;;;;;;5015021;28;20437;-71
2022/01/21 11:39:33;;;;;;;1.13;0.80;;;1.60;99.90;;;;;;5018720;28;20450;-69
2022/01/21 11:42:01;;;;;;;1.10;0.87;;;1.70;99.90;;;;;;5014866;28;20484;-69
2022/01/21 11:44:29;;;;;;;14.80;1.63;;;1.70;99.90;;;;;;5032596;28;20557;-70
2022/01/21 11:47:02;;;;;;;0.80;0.80;;;1.80;99.90;;;;;;5032320;28;20441;-69
2022/01/21 11:49:32;;;;;;;0.70;0.70;;;1.80;99.90;;;;;;5016084;28;20422;-70
2022/01/21 11:52:15;;;;;;;0.70;0.70;;;1.90;99.90;;;;;;5032405;28;20414;-69
2022/01/21 11:54:42;;;;;;;0.80;0.80;;;1.90;99.90;;;;;;5032074;28;20798;-69
2022/01/21 11:57:10;;;;;;;2.10;1.03;;;1.90;99.90;;;;;;5032223;28;20418;-70
2022/01/21 12:00:01;;;;;;;1.03;1.03;;;2.00;99.90;;;;;;5032418;28;20511;-69
2022/01/21 12:02:29;;;;;;;1.03;0.83;;;2.00;99.90;;;;;;5032193;28;20457;-69
2022/01/21 12:04:59;;;;;;;2.50;1.27;;;2.10;99.90;;;;;;5032022;28;20438;-69
2022/01/21 12:07:34;;;;;;;0.90;0.80;;;2.10;99.90;;;;;;5040040;28;20859;-69
2022/01/21 12:10:05;;;;;;;10.90;1.20;;;2.20;99.90;;;;;;5032436;28;20409;-69
2022/01/21 12:12:47;;;;;;;1.10;1.00;;;2.20;99.90;;;;;;5032334;28;20414;-69
2022/01/21 12:15:52;;;;;;;0.83;0.83;;;2.20;99.90;;;;;;5031867;28;20530;-69
2022/01/21 12:18:35;;;;;;;0.93;0.83;;;2.20;99.90;;;;;;5014920;28;20444;-69
2022/01/21 12:21:23;;;;;;;1.43;1.33;;;2.30;99.90;;;;;;5034353;28;20398;-69
2022/01/21 12:23:48;;;;;;;1.13;0.80;;;2.30;99.90;;;;;;5035127;28;20904;-67
2022/01/21 12:26:15;;;;;;;1.00;1.00;;;2.40;99.90;;;;;;5032688;28;20462;-69
2022/01/21 12:28:44;;;;;;;1.20;1.10;;;2.50;99.90;;;;;;5031922;28;20175;-69
2022/01/21 12:31:12;;;;;;;1.53;0.90;;;2.40;99.90;;;;;;5031857;28;20533;-69
2022/01/21 12:34:00;;;;;;;1.13;1.00;;;2.50;99.90;;;;;;5031461;28;20430;-70
2022/01/21 12:36:34;;;;;;;1.63;1.53;;;2.50;99.90;;;;;;5031634;28;20456;-70
2022/01/21 12:41:37;;;;;;;2.90;0.93;;;2.50;99.90;;;;;;5031669;28;20494;-70
2022/01/21 12:44:08;;;;;;;1.60;1.03;;;2.60;99.90;;;;;;5031300;28;20480;-70
2022/01/21 12:46:35;;;;;;;1.17;1.07;;;2.60;99.90;;;;;;5031425;28;20450;-70
2022/01/21 12:49:33;;;;;;;1.67;1.03;;;2.60;99.90;;;;;;5031448;28;20517;-70
2022/01/21 12:57:32;;;;;;;0.70;0.70;;;2.60;99.90;;;;;;5019251;28;20480;-69
2022/01/21 13:00:07;;;;;;;3.50;1.33;;;2.50;99.90;;;;;;5031259;28;20427;-69
2022/01/21 13:02:33;;;;;;;0.90;0.90;;;2.50;99.90;;;;;;5031399;28;20422;-69
2022/01/21 13:05:17;;;;;;;0.80;0.80;;;2.50;99.90;;;;;;5031134;28;20449;-71
2022/01/21 13:08:27;;;;;;;1.20;0.80;;;2.50;99.90;;;;;;5039596;28;20500;-69
2022/01/21 13:10:53;;;;;;;0.70;0.70;;;2.40;99.90;;;;;;5004995;28;20438;-69
2022/01/21 13:13:45;;;;;;;2.70;1.00;;;2.40;99.90;;;;;;5031267;28;20414;-69
2022/01/21 13:16:23;;;;;;;0.80;0.80;;;2.40;99.90;;;;;;5031176;28;20768;-69
2022/01/21 13:18:49;;;;;;;1.13;0.80;;;2.50;99.90;;;;;;5015727;28;20489;-70
2022/01/21 13:21:15;;;;;;;0.70;0.70;;;2.50;99.90;;;;;;5029553;28;20430;-70
2022/01/21 13:23:55;;;;;;;1.07;0.83;;;2.40;99.90;;;;;;5030945;28;20258;-68
2022/01/21 13:26:25;;;;;;;1.17;1.07;;;2.50;99.90;;;;;;5030828;28;20222;-69
2022/01/21 13:28:59;;;;;;;1.17;1.07;;;2.50;99.90;;;;;;5031023;28;20446;-69
2022/01/21 13:31:26;;;;;;;2.20;1.33;;;2.50;99.90;;;;;;5031064;28;20814;-69
2022/01/21 13:33:52;;;;;;;0.80;0.80;;;2.50;99.90;;;;;;5031005;28;20862;-70
2022/01/21 13:36:36;;;;;;;5.23;1.17;;;2.50;99.90;;;;;;5030737;28;20497;-69
2022/01/21 13:39:11;;;;;;;0.60;0.60;;;2.60;99.90;;;;;;5030764;28;20721;-69